createdAt,value
2022-09-17T00:01:33.608Z,24.80
2022-09-17T00:04:05.011Z,24.70
2022-09-17T00:06:34.961Z,24.70
2022-09-17T00:09:03.680Z,24.70
2022-09-17T00:11:35.111Z,24.70
2022-09-17T00:14:05.202Z,24.70
2022-09-17T00:16:36.453Z,24.70
2022-09-17T00:19:08.302Z,24.60
2022-09-17T00:21:36.410Z,24.60
2022-09-17T00:24:06.565Z,24.60
2022-09-17T00:26:36.805Z,24.60
2022-09-17T00:29:05.709Z,24.50
2022-09-17T00:31:34.329Z,24.50
2022-09-17T00:34:03.715Z,24.50
2022-09-17T00:36:35.400Z,24.50
2022-09-17T00:39:04.595Z,24.50
2022-09-17T00:41:34.876Z,24.50
2022-09-17T00:44:23.881Z,24.50
2022-09-17T00:46:53.562Z,24.40
2022-09-17T00:49:25.522Z,24.40
2022-09-17T00:52:00.453Z,24.40
2022-09-17T00:54:29.398Z,24.40
2022-09-17T00:56:58.722Z,24.30
2022-09-17T00:59:27.893Z,24.30
2022-09-17T01:01:56.090Z,24.30
2022-09-17T01:04:25.800Z,24.30
2022-09-17T01:07:04.280Z,24.30
2022-09-17T01:09:42.086Z,24.20
2022-09-17T01:12:22.661Z,24.20
2022-09-17T01:15:16.463Z,24.20
2022-09-17T01:17:51.654Z,24.20
2022-09-17T01:21:14.150Z,24.20
2022-09-17T01:24:24.820Z,24.20
2022-09-17T01:27:19.676Z,24.10
2022-09-17T01:30:02.736Z,24.10
2022-09-17T01:32:40.310Z,24.10
2022-09-17T01:35:17.547Z,24.10
2022-09-17T01:37:56.378Z,24.10
2022-09-17T01:40:30.101Z,24.00
2022-09-17T01:43:03.140Z,24.00
2022-09-17T01:45:37.873Z,24.00
2022-09-17T01:48:13.876Z,23.90
2022-09-17T01:50:47.107Z,23.90
2022-09-17T01:53:17.486Z,23.90
2022-09-17T01:55:48.356Z,23.90
2022-09-17T01:58:23.162Z,23.80
2022-09-17T02:00:55.625Z,23.80
2022-09-17T02:03:30.656Z,23.80
2022-09-17T02:06:03.278Z,23.80
2022-09-17T02:08:37.057Z,23.80
2022-09-17T02:11:09.678Z,23.80
2022-09-17T02:13:44.590Z,23.70
2022-09-17T02:16:16.997Z,23.70
2022-09-17T02:18:52.506Z,23.70
2022-09-17T02:21:30.324Z,23.70
2022-09-17T02:24:07.037Z,23.60
2022-09-17T02:26:38.600Z,23.60
2022-09-17T02:29:10.631Z,23.60
2022-09-17T02:31:42.490Z,23.60
2022-09-17T02:34:12.399Z,23.50
2022-09-17T02:36:40.273Z,23.50
2022-09-17T02:39:10.075Z,23.50
2022-09-17T02:41:47.920Z,23.50
2022-09-17T02:44:27.491Z,23.50
2022-09-17T02:47:25.307Z,23.40
2022-09-17T02:50:17.186Z,23.40
2022-09-17T02:53:00.077Z,23.40
2022-09-17T02:55:37.335Z,23.40
2022-09-17T02:58:15.748Z,23.40
2022-09-17T03:00:44.591Z,23.30
2022-09-17T03:03:18.380Z,23.30
2022-09-17T03:05:49.180Z,23.30
2022-09-17T03:08:20.247Z,23.30
2022-09-17T03:10:49.586Z,23.20
2022-09-17T03:13:17.652Z,23.20
2022-09-17T03:15:45.778Z,23.20
2022-09-17T03:18:13.902Z,23.10
2022-09-17T03:20:42.017Z,23.10
2022-09-17T03:23:11.413Z,23.10
2022-09-17T03:25:39.509Z,23.10
2022-09-17T03:28:07.560Z,23.10
2022-09-17T03:30:35.736Z,23.10
2022-09-17T03:33:03.813Z,23.00
2022-09-17T03:35:31.883Z,23.00
2022-09-17T03:38:00.197Z,23.00
2022-09-17T03:40:29.809Z,22.90
2022-09-17T03:42:57.891Z,22.90
2022-09-17T03:45:26.019Z,22.90
2022-09-17T03:47:54.086Z,22.90
2022-09-17T03:50:22.325Z,22.90
2022-09-17T03:52:50.577Z,22.90
2022-09-17T03:55:18.822Z,22.80
2022-09-17T03:57:48.649Z,22.80
2022-09-17T04:00:17.495Z,22.80
2022-09-17T04:02:45.780Z,22.80
2022-09-17T04:05:13.850Z,22.80
2022-09-17T04:07:42.205Z,22.70
2022-09-17T04:10:10.901Z,22.70
2022-09-17T04:12:39.032Z,22.70
2022-09-17T04:15:09.628Z,22.70
2022-09-17T04:17:37.816Z,22.70
2022-09-17T04:20:06.882Z,22.60
2022-09-17T04:22:35.327Z,22.60
2022-09-17T04:25:03.437Z,22.60
2022-09-17T04:27:31.506Z,22.60
2022-09-17T04:29:59.555Z,22.60
2022-09-17T04:32:28.990Z,22.50
2022-09-17T04:34:57.035Z,22.50
2022-09-17T04:37:25.927Z,22.50
2022-09-17T04:39:54.063Z,22.50
2022-09-17T04:42:22.153Z,22.50
2022-09-17T04:44:50.353Z,22.50
2022-09-17T04:47:18.697Z,22.40
2022-09-17T04:49:48.113Z,22.40
2022-09-17T04:52:16.205Z,22.40
2022-09-17T04:54:44.240Z,22.40
2022-09-17T04:57:12.330Z,22.40
2022-09-17T04:59:40.376Z,22.30
2022-09-17T05:02:08.749Z,22.30
2022-09-17T05:04:36.878Z,22.20
2022-09-17T05:07:06.450Z,22.20
2022-09-17T05:09:34.732Z,22.20
2022-09-17T05:12:03.150Z,22.20
2022-09-17T05:14:31.192Z,22.10
2022-09-17T05:16:59.365Z,22.10
2022-09-17T05:19:27.443Z,22.10
2022-09-17T05:21:55.522Z,22.00
2022-09-17T05:24:25.135Z,22.10
2022-09-17T05:26:53.200Z,22.00
2022-09-17T05:29:21.242Z,21.90
2022-09-17T05:31:49.405Z,21.80
2022-09-17T05:34:17.492Z,21.80
2022-09-17T05:36:45.516Z,21.80
2022-09-17T05:39:13.580Z,21.70
2022-09-17T05:41:43.220Z,21.70
2022-09-17T05:44:13.810Z,21.70
2022-09-17T05:46:46.085Z,21.70
2022-09-17T05:49:14.321Z,21.60
2022-09-17T05:51:42.380Z,21.50
2022-09-17T05:54:10.615Z,21.40
2022-09-17T05:56:38.731Z,21.30
2022-09-17T05:59:08.193Z,21.10
2022-09-17T06:01:36.284Z,21.00
2022-09-17T06:04:04.638Z,20.90
2022-09-17T06:06:32.862Z,20.80
2022-09-17T06:09:01.137Z,20.70
2022-09-17T06:11:29.425Z,20.60
2022-09-17T06:13:57.583Z,20.60
2022-09-17T06:16:27.592Z,20.50
2022-09-17T06:18:55.644Z,20.60
2022-09-17T06:21:24.114Z,20.80
2022-09-17T06:23:52.293Z,20.90
2022-09-17T06:26:20.408Z,21.30
2022-09-17T06:28:48.513Z,21.70
2022-09-17T06:31:16.656Z,21.90
2022-09-17T06:33:48.197Z,22.10
2022-09-17T06:36:16.269Z,22.40
2022-09-17T06:38:44.366Z,22.30
2022-09-17T06:41:12.553Z,22.30
2022-09-17T06:43:40.622Z,22.50
2022-09-17T06:46:09.335Z,22.80
2022-09-17T06:48:38.972Z,22.60
2022-09-17T06:51:11.491Z,22.80
2022-09-17T06:53:40.399Z,23.00
2022-09-17T06:56:09.936Z,23.10
2022-09-17T06:58:38.246Z,23.50
2022-09-17T07:01:07.176Z,23.40
2022-09-17T07:03:35.753Z,24.10
2022-09-17T07:06:04.216Z,23.50
2022-09-17T07:08:35.563Z,23.50
2022-09-17T07:11:03.705Z,23.40
2022-09-17T07:13:31.800Z,23.40
2022-09-17T07:16:01.476Z,23.30
2022-09-17T07:18:29.796Z,23.40
2022-09-17T07:20:59.574Z,23.00
2022-09-17T07:23:29.243Z,23.30
2022-09-17T07:26:00.272Z,23.30
2022-09-17T07:28:29.881Z,23.20
2022-09-17T07:30:58.491Z,23.40
2022-09-17T07:33:28.090Z,23.60
2022-09-17T07:35:56.957Z,23.90
2022-09-17T07:38:25.929Z,23.90
2022-09-17T07:40:59.849Z,24.00
2022-09-17T07:43:29.541Z,24.20
2022-09-17T07:45:58.892Z,24.50
2022-09-17T07:48:27.225Z,24.70
2022-09-17T07:50:55.688Z,24.90
2022-09-17T07:53:23.975Z,25.20
2022-09-17T07:55:55.401Z,25.50
2022-09-17T07:58:29.058Z,25.70
2022-09-17T08:01:02.116Z,26.10
2022-09-17T08:03:30.428Z,26.40
2022-09-17T08:06:04.088Z,26.70
2022-09-17T08:08:33.853Z,27.00
2022-09-17T08:11:03.195Z,27.30
2022-09-17T08:13:32.879Z,27.60
2022-09-17T08:16:02.063Z,27.90
2022-09-17T08:18:30.778Z,28.20
2022-09-17T08:20:59.825Z,28.50
2022-09-17T08:23:28.591Z,28.80
2022-09-17T08:25:57.412Z,29.10
2022-09-17T08:28:26.952Z,29.30
2022-09-17T08:31:00.992Z,29.60
2022-09-17T08:33:32.437Z,30.00
2022-09-17T08:36:00.890Z,30.40
2022-09-17T08:38:29.305Z,30.70
2022-09-17T08:41:07.690Z,31.00
2022-09-17T08:43:48.031Z,31.30
2022-09-17T08:46:17.533Z,31.60
2022-09-17T08:48:50.173Z,31.50
2022-09-17T08:51:32.686Z,31.60
2022-09-17T08:54:08.151Z,32.20
2022-09-17T08:56:38.856Z,32.40
2022-09-17T08:59:21.633Z,32.70
2022-09-17T09:02:01.060Z,33.10
2022-09-17T09:04:44.772Z,33.40
2022-09-17T09:07:17.366Z,33.60
2022-09-17T09:09:50.950Z,34.40
2022-09-17T09:12:25.629Z,35.60
2022-09-17T09:14:59.681Z,35.20
2022-09-17T09:17:35.186Z,36.10
2022-09-17T09:20:04.305Z,35.30
2022-09-17T09:22:47.740Z,35.60
2022-09-17T09:25:20.431Z,35.40
2022-09-17T09:27:51.555Z,34.80
2022-09-17T09:30:23.668Z,35.10
2022-09-17T09:32:57.583Z,35.60
2022-09-17T09:35:27.469Z,35.60
2022-09-17T09:37:57.700Z,35.70
2022-09-17T09:40:32.869Z,36.20
2022-09-17T09:43:02.682Z,36.60
2022-09-17T09:45:39.112Z,37.00
2022-09-17T09:48:13.833Z,36.60
2022-09-17T09:51:05.598Z,36.60
2022-09-17T09:53:43.361Z,36.10
2022-09-17T09:56:16.824Z,35.60
2022-09-17T09:58:44.653Z,35.70
2022-09-17T10:01:14.075Z,36.30
2022-09-17T10:03:46.137Z,35.70
2022-09-17T10:06:15.429Z,34.90
2022-09-17T10:08:46.213Z,34.70
2022-09-17T10:11:22.475Z,33.50
2022-09-17T10:13:50.439Z,32.90
2022-09-17T10:16:19.070Z,32.60
2022-09-17T10:18:48.777Z,31.90
2022-09-17T10:21:20.972Z,31.40
2022-09-17T10:23:49.173Z,31.80
2022-09-17T10:26:24.171Z,31.40
2022-09-17T10:28:52.807Z,31.40
2022-09-17T10:31:20.829Z,32.50
2022-09-17T10:33:54.380Z,33.40
2022-09-17T10:36:41.885Z,34.10
2022-09-17T10:39:20.256Z,34.90
2022-09-17T10:41:54.711Z,35.10
2022-09-17T10:44:23.884Z,35.40
2022-09-17T10:46:52.349Z,35.20
2022-09-17T10:49:25.711Z,35.40
2022-09-17T10:51:53.595Z,36.00
2022-09-17T10:54:35.096Z,35.80
2022-09-17T10:57:03.087Z,35.00
2022-09-17T10:59:43.792Z,33.10
2022-09-17T11:02:26.680Z,32.50
2022-09-17T11:05:01.291Z,32.40
2022-09-17T11:07:34.212Z,33.10
2022-09-17T11:10:10.516Z,34.20
2022-09-17T11:12:42.877Z,35.50
2022-09-17T11:25:24.903Z,32.90
2022-09-17T11:28:10.455Z,34.40
2022-09-17T11:30:48.468Z,35.20
2022-09-17T11:33:25.292Z,36.10
2022-09-17T11:36:00.218Z,37.00
2022-09-17T11:38:39.648Z,37.50
2022-09-17T11:41:10.528Z,38.00
2022-09-17T11:43:44.226Z,38.40
2022-09-17T11:46:19.997Z,38.90
2022-09-17T11:48:54.068Z,39.60
2022-09-17T11:51:31.719Z,40.40
2022-09-17T11:54:07.684Z,41.00
2022-09-17T11:56:42.416Z,41.60
2022-09-17T11:59:17.577Z,42.20
2022-09-17T12:01:54.090Z,42.70
2022-09-17T12:04:36.772Z,43.20
2022-09-17T12:07:23.494Z,43.30
2022-09-17T12:09:57.237Z,42.60
2022-09-17T12:12:49.161Z,42.60
2022-09-17T12:15:21.850Z,42.60
2022-09-17T12:18:20.635Z,41.20
2022-09-17T12:20:50.709Z,39.80
2022-09-17T12:23:30.121Z,38.60
2022-09-17T12:26:03.729Z,38.10
2022-09-17T12:28:39.666Z,38.30
2022-09-17T12:31:15.549Z,39.40
2022-09-17T12:33:52.669Z,40.20
2022-09-17T12:36:34.594Z,40.30
2022-09-17T12:39:47.270Z,39.80
2022-09-17T12:42:32.954Z,39.60
2022-09-17T12:45:14.308Z,40.40
2022-09-17T12:48:18.096Z,40.40
2022-09-17T12:50:58.341Z,40.20
2022-09-17T12:53:31.596Z,39.70
2022-09-17T12:56:06.666Z,39.20
2022-09-17T12:58:51.010Z,38.90
2022-09-17T13:01:25.641Z,39.20
2022-09-17T13:03:58.889Z,39.80
2022-09-17T13:06:56.849Z,39.70
2022-09-17T13:09:45.608Z,39.50
2022-09-17T13:12:16.645Z,39.10
2022-09-17T13:15:06.725Z,39.00
2022-09-17T13:17:41.558Z,38.80
2022-09-17T13:20:17.743Z,38.60
2022-09-17T13:22:50.065Z,38.20
2022-09-17T13:25:21.192Z,37.70
2022-09-17T13:27:52.019Z,37.20
2022-09-17T13:30:20.837Z,36.70
2022-09-17T13:32:53.761Z,36.20
2022-09-17T13:35:50.963Z,35.80
2022-09-17T13:38:24.836Z,35.50
2022-09-17T13:40:53.658Z,35.20
2022-09-17T13:43:27.804Z,35.10
2022-09-17T13:46:15.734Z,35.00
2022-09-17T13:48:50.585Z,35.50
2022-09-17T13:51:52.964Z,36.60
2022-09-17T13:54:24.591Z,37.70
2022-09-17T13:57:12.588Z,38.50
2022-09-17T13:59:55.264Z,38.60
2022-09-17T14:02:36.447Z,38.40
2022-09-17T14:05:33.358Z,37.80
2022-09-17T14:08:31.151Z,37.20
2022-09-17T14:11:03.806Z,36.50
2022-09-17T14:13:47.033Z,35.90
2022-09-17T14:16:50.329Z,35.40
2022-09-17T14:19:40.845Z,35.00
2022-09-17T14:22:16.254Z,34.70
2022-09-17T14:24:50.193Z,34.30
2022-09-17T14:27:47.745Z,34.10
2022-09-17T14:30:20.198Z,33.80
2022-09-17T14:32:55.181Z,33.60
2022-09-17T14:35:30.092Z,33.40
2022-09-17T14:38:01.299Z,33.30
2022-09-17T14:40:30.380Z,33.60
2022-09-17T14:43:00.627Z,34.70
2022-09-17T14:45:32.833Z,35.60
2022-09-17T14:48:29.228Z,37.40
2022-09-17T14:51:33.742Z,37.60
2022-09-17T14:54:20.493Z,38.30
2022-09-17T14:56:55.573Z,38.80
2022-09-17T14:59:55.574Z,39.10
2022-09-17T15:02:30.279Z,38.80
2022-09-17T15:04:58.724Z,39.00
2022-09-17T15:07:27.712Z,39.40
2022-09-17T15:09:56.308Z,39.70
2022-09-17T15:12:29.995Z,39.90
2022-09-17T15:14:59.920Z,40.10
2022-09-17T15:17:28.005Z,40.40
2022-09-17T15:19:59.251Z,40.10
2022-09-17T15:22:30.541Z,39.60
2022-09-17T15:25:03.878Z,39.20
2022-09-17T15:27:35.773Z,39.30
2022-09-17T15:30:07.778Z,39.50
2022-09-17T15:32:36.017Z,39.60
2022-09-17T15:35:23.894Z,39.60
2022-09-17T15:38:21.216Z,39.40
2022-09-17T15:40:42.646Z,39.10
2022-09-17T15:43:19.653Z,38.90
2022-09-17T15:45:49.181Z,38.70
2022-09-17T15:48:35.730Z,37.80
2022-09-17T15:51:06.979Z,37.00
2022-09-17T15:53:36.332Z,36.40
2022-09-17T15:56:07.251Z,35.90
2022-09-17T15:58:52.197Z,35.90
2022-09-17T16:01:56.227Z,35.80
2022-09-17T16:04:32.389Z,34.90
2022-09-17T16:07:25.497Z,34.60
2022-09-17T16:09:54.068Z,34.30
2022-09-17T16:12:23.592Z,33.30
2022-09-17T16:14:53.919Z,32.80
2022-09-17T16:17:24.967Z,32.70
2022-09-17T16:19:54.879Z,32.50
2022-09-17T16:22:23.325Z,32.30
2022-09-17T16:24:51.422Z,32.10
2022-09-17T16:27:23.225Z,31.80
2022-09-17T16:29:53.467Z,31.50
2022-09-17T16:32:21.532Z,31.10
2022-09-17T16:34:49.615Z,30.80
2022-09-17T16:37:19.085Z,30.50
2022-09-17T16:39:46.923Z,30.30
2022-09-17T16:42:15.034Z,30.00
2022-09-17T16:44:43.116Z,29.80
2022-09-17T16:47:11.251Z,29.50
2022-09-17T16:49:39.325Z,29.30
2022-09-17T16:52:07.447Z,29.10
2022-09-17T16:54:37.062Z,28.90
2022-09-17T16:57:05.141Z,28.70
2022-09-17T16:59:33.210Z,28.50
2022-09-17T17:02:01.513Z,28.40
2022-09-17T17:04:29.581Z,28.20
2022-09-17T17:06:57.668Z,28.00
2022-09-17T17:09:25.826Z,27.90
2022-09-17T17:11:56.124Z,27.70
2022-09-17T17:14:24.468Z,27.60
2022-09-17T17:16:52.581Z,27.50
2022-09-17T17:19:20.656Z,27.60
2022-09-17T17:21:51.638Z,27.60
2022-09-17T17:24:19.845Z,27.60
2022-09-17T17:26:49.133Z,27.60
2022-09-17T17:29:19.083Z,27.70
2022-09-17T17:31:49.552Z,27.60
2022-09-17T17:34:17.849Z,27.60
2022-09-17T17:36:45.984Z,27.60
2022-09-17T17:39:14.079Z,27.60
2022-09-17T17:41:42.172Z,27.50
2022-09-17T17:44:12.561Z,27.50
2022-09-17T17:46:42.170Z,27.50
2022-09-17T17:49:10.055Z,27.40
2022-09-17T17:51:38.381Z,27.30
2022-09-17T17:54:06.660Z,27.40
2022-09-17T17:56:37.544Z,27.30
2022-09-17T17:59:06.021Z,27.20
2022-09-17T18:01:35.167Z,27.10
2022-09-17T18:04:08.160Z,27.10
2022-09-17T18:06:36.444Z,27.00
2022-09-17T18:09:06.057Z,27.00
2022-09-17T18:11:34.593Z,27.00
2022-09-17T18:14:03.028Z,26.90
2022-09-17T18:16:31.480Z,26.90
2022-09-17T18:19:00.308Z,26.90
2022-09-17T18:21:29.890Z,26.80
2022-09-17T18:23:58.016Z,26.90
2022-09-17T18:26:28.344Z,26.80
2022-09-17T18:28:57.159Z,26.80
2022-09-17T18:31:27.547Z,26.70
2022-09-17T18:34:00.424Z,26.70
2022-09-17T18:36:31.765Z,26.70
2022-09-17T18:39:56.394Z,26.70
2022-09-17T18:41:50.914Z,26.70
2022-09-17T18:44:21.705Z,26.70
2022-09-17T18:46:51.330Z,26.70
2022-09-17T18:49:19.680Z,26.70
2022-09-17T18:51:49.176Z,26.70
2022-09-17T18:54:17.367Z,26.70
2022-09-17T18:56:45.528Z,26.60
2022-09-17T18:59:13.655Z,26.70
2022-09-17T19:01:41.973Z,26.70
2022-09-17T19:04:11.317Z,26.70
2022-09-17T19:06:39.497Z,26.60
2022-09-17T19:09:11.618Z,26.60
2022-09-17T19:11:39.704Z,26.60
2022-09-17T19:14:11.018Z,26.60
2022-09-17T19:16:39.102Z,26.60
2022-09-17T19:19:07.249Z,26.60
2022-09-17T19:21:35.306Z,26.50
2022-09-17T19:24:04.069Z,26.50
2022-09-17T19:26:33.569Z,26.50
2022-09-17T19:29:04.756Z,26.40
2022-09-17T19:31:32.927Z,26.40
2022-09-17T19:34:01.165Z,26.40
2022-09-17T19:36:29.344Z,26.40
2022-09-17T19:38:58.808Z,26.40
2022-09-17T19:41:27.242Z,26.30
2022-09-17T19:43:57.265Z,26.30
2022-09-17T19:46:27.575Z,26.30
2022-09-17T19:48:57.874Z,26.30
2022-09-17T19:51:28.438Z,26.30
2022-09-17T19:53:57.233Z,26.30
2022-09-17T19:56:27.762Z,26.20
2022-09-17T19:58:57.770Z,26.20
2022-09-17T20:01:26.019Z,26.10
2022-09-17T20:03:54.278Z,26.10
2022-09-17T20:06:23.930Z,26.10
2022-09-17T20:08:53.201Z,26.10
2022-09-17T20:11:23.674Z,26.00
2022-09-17T20:13:52.264Z,26.00
2022-09-17T20:16:22.798Z,26.00
2022-09-17T20:18:51.349Z,26.00
2022-09-17T20:21:21.952Z,26.00
2022-09-17T20:23:50.346Z,25.90
2022-09-17T20:26:18.772Z,25.90
2022-09-17T20:28:47.503Z,25.90
2022-09-17T20:31:17.480Z,25.90
2022-09-17T20:33:48.180Z,25.70
2022-09-17T20:36:18.882Z,25.60
2022-09-17T20:41:36.612Z,25.50
2022-09-17T20:44:04.789Z,25.50
2022-09-17T20:46:32.934Z,25.50
2022-09-17T20:49:02.454Z,25.50
2022-09-17T20:51:32.741Z,25.50
2022-09-17T20:54:01.984Z,25.50
2022-09-17T20:56:33.290Z,25.50
2022-09-17T20:59:08.422Z,25.50
2022-09-17T21:01:37.777Z,25.40
2022-09-17T21:04:09.309Z,25.30
2022-09-17T21:06:40.728Z,25.20
2022-09-17T21:09:10.461Z,25.10
2022-09-17T21:11:39.118Z,25.10
2022-09-17T21:14:08.501Z,25.10
2022-09-17T21:16:36.708Z,25.00
2022-09-17T21:19:08.931Z,25.00
2022-09-17T21:21:37.121Z,24.90
2022-09-17T21:24:07.394Z,24.90
2022-09-17T21:26:36.024Z,24.90
2022-09-17T21:29:04.508Z,24.90
2022-09-17T21:31:34.392Z,24.90
2022-09-17T21:34:04.754Z,24.90
2022-09-17T21:36:37.981Z,24.80
2022-09-17T21:39:07.991Z,24.80
2022-09-17T21:41:41.427Z,24.80
2022-09-17T21:44:11.125Z,24.80
2022-09-17T21:46:39.859Z,24.70
2022-09-17T21:49:08.208Z,24.70
2022-09-17T21:51:39.197Z,24.70
2022-09-17T21:54:08.905Z,24.70
2022-09-17T21:56:37.654Z,24.70
2022-09-17T21:59:07.637Z,24.60
2022-09-17T22:01:39.860Z,24.60
2022-09-17T22:04:09.420Z,24.60
2022-09-17T22:06:39.472Z,24.50
2022-09-17T22:09:09.143Z,24.50
2022-09-17T22:11:38.813Z,24.50
2022-09-17T22:14:10.905Z,24.50
2022-09-17T22:16:40.905Z,24.50
2022-09-17T22:19:09.920Z,24.50
2022-09-17T22:21:41.259Z,24.50
2022-09-17T22:24:10.936Z,24.40
2022-09-17T22:26:40.611Z,24.40
2022-09-17T22:29:11.633Z,24.40
2022-09-17T22:31:40.065Z,24.40
2022-09-17T22:34:09.133Z,24.40
2022-09-17T22:36:37.586Z,24.30
2022-09-17T22:39:07.720Z,24.30
2022-09-17T22:41:37.719Z,24.30
2022-09-17T22:44:07.530Z,24.20
2022-09-17T22:46:39.329Z,24.20
2022-09-17T22:49:08.626Z,24.20
2022-09-17T22:51:36.999Z,24.20
2022-09-17T22:54:07.290Z,24.10
2022-09-17T22:56:36.671Z,24.10
2022-09-17T22:59:05.067Z,24.10
2022-09-17T23:01:36.382Z,24.10
2022-09-17T23:04:05.551Z,24.00
2022-09-17T23:06:35.104Z,24.10
2022-09-17T23:09:04.243Z,24.00
2022-09-17T23:11:35.314Z,24.00
2022-09-17T23:14:05.921Z,24.00
2022-09-17T23:16:37.314Z,24.00
2022-09-17T23:19:05.656Z,24.00
2022-09-17T23:21:34.120Z,24.00
2022-09-17T23:24:03.636Z,24.00
2022-09-17T23:26:33.390Z,23.90
2022-09-17T23:29:05.411Z,23.90
2022-09-17T23:31:35.778Z,23.90
2022-09-17T23:34:05.460Z,23.90
2022-09-17T23:36:54.383Z,23.90
2022-09-17T23:39:22.512Z,23.90
2022-09-17T23:41:51.989Z,23.80
2022-09-17T23:44:20.065Z,23.80
2022-09-17T23:46:48.251Z,23.80
2022-09-17T23:49:16.877Z,23.80
2022-09-17T23:51:45.300Z,23.60
2022-09-17T23:54:13.412Z,23.80
2022-09-17T23:56:41.604Z,23.70
2022-09-17T23:59:11.781Z,23.70
